sensor_id;sensor_type;location;lat;lon;timestamp;P1;durP1;ratioP1;P2;durP2;ratioP2
49566;SDS011;35472;50.514;30.448;2024-03-17T00:02:21;37.03;;;20.60;;
49566;SDS011;35472;50.514;30.448;2024-03-17T00:04:46;36.95;;;20.10;;
49566;SDS011;35472;50.514;30.448;2024-03-17T00:07:12;36.35;;;21.20;;
49566;SDS011;35472;50.514;30.448;2024-03-17T00:09:38;32.55;;;20.02;;
49566;SDS011;35472;50.514;30.448;2024-03-17T00:12:04;34.03;;;19.63;;
49566;SDS011;35472;50.514;30.448;2024-03-17T00:14:30;38.17;;;22.33;;
49566;SDS011;35472;50.514;30.448;2024-03-17T00:16:55;36.92;;;21.02;;
49566;SDS011;35472;50.514;30.448;2024-03-17T00:19:21;33.15;;;19.90;;
49566;SDS011;35472;50.514;30.448;2024-03-17T00:21:48;30.60;;;21.38;;
49566;SDS011;35472;50.514;30.448;2024-03-17T00:24:15;33.03;;;20.83;;
49566;SDS011;35472;50.514;30.448;2024-03-17T00:26:41;35.03;;;21.88;;
49566;SDS011;35472;50.514;30.448;2024-03-17T00:29:07;32.95;;;19.48;;
49566;SDS011;35472;50.514;30.448;2024-03-17T00:31:34;32.45;;;20.23;;
49566;SDS011;35472;50.514;30.448;2024-03-17T00:34:00;30.30;;;20.52;;
49566;SDS011;35472;50.514;30.448;2024-03-17T00:36:25;38.30;;;21.75;;
49566;SDS011;35472;50.514;30.448;2024-03-17T00:38:51;34.03;;;18.85;;
49566;SDS011;35472;50.514;30.448;2024-03-17T00:41:18;37.05;;;20.10;;
49566;SDS011;35472;50.514;30.448;2024-03-17T00:43:45;42.40;;;22.42;;
49566;SDS011;35472;50.514;30.448;2024-03-17T00:46:10;32.80;;;21.10;;
49566;SDS011;35472;50.514;30.448;2024-03-17T00:48:36;33.53;;;21.00;;
49566;SDS011;35472;50.514;30.448;2024-03-17T00:51:01;37.75;;;22.08;;
49566;SDS011;35472;50.514;30.448;2024-03-17T00:53:27;36.25;;;21.17;;
49566;SDS011;35472;50.514;30.448;2024-03-17T00:55:55;35.47;;;19.75;;
49566;SDS011;35472;50.514;30.448;2024-03-17T00:58:25;35.33;;;20.58;;
49566;SDS011;35472;50.514;30.448;2024-03-17T01:03:25;39.20;;;22.67;;
49566;SDS011;35472;50.514;30.448;2024-03-17T01:05:52;39.25;;;22.23;;
49566;SDS011;35472;50.514;30.448;2024-03-17T01:08:18;29.50;;;20.60;;
49566;SDS011;35472;50.514;30.448;2024-03-17T01:10:44;31.58;;;21.65;;
49566;SDS011;35472;50.514;30.448;2024-03-17T01:13:12;36.72;;;20.75;;
49566;SDS011;35472;50.514;30.448;2024-03-17T01:15:38;33.50;;;19.58;;
49566;SDS011;35472;50.514;30.448;2024-03-17T01:18:04;34.60;;;21.85;;
49566;SDS011;35472;50.514;30.448;2024-03-17T01:20:30;36.35;;;22.40;;
49566;SDS011;35472;50.514;30.448;2024-03-17T01:23:00;33.20;;;21.08;;
49566;SDS011;35472;50.514;30.448;2024-03-17T01:25:26;37.20;;;22.38;;
49566;SDS011;35472;50.514;30.448;2024-03-17T01:27:52;40.65;;;21.00;;
49566;SDS011;35472;50.514;30.448;2024-03-17T01:30:18;37.00;;;20.73;;
49566;SDS011;35472;50.514;30.448;2024-03-17T01:32:44;35.88;;;20.90;;
49566;SDS011;35472;50.514;30.448;2024-03-17T01:35:11;39.50;;;21.40;;
49566;SDS011;35472;50.514;30.448;2024-03-17T01:37:37;32.17;;;20.85;;
49566;SDS011;35472;50.514;30.448;2024-03-17T01:40:03;34.80;;;21.60;;
49566;SDS011;35472;50.514;30.448;2024-03-17T01:42:33;34.30;;;22.02;;
49566;SDS011;35472;50.514;30.448;2024-03-17T01:44:59;32.60;;;21.80;;
49566;SDS011;35472;50.514;30.448;2024-03-17T01:47:24;34.25;;;21.60;;
49566;SDS011;35472;50.514;30.448;2024-03-17T01:49:50;31.50;;;20.13;;
49566;SDS011;35472;50.514;30.448;2024-03-17T01:52:16;32.40;;;20.10;;
49566;SDS011;35472;50.514;30.448;2024-03-17T01:54:43;34.90;;;20.90;;
49566;SDS011;35472;50.514;30.448;2024-03-17T01:57:12;30.30;;;19.63;;
49566;SDS011;35472;50.514;30.448;2024-03-17T01:59:38;33.83;;;20.98;;
49566;SDS011;35472;50.514;30.448;2024-03-17T02:02:05;33.15;;;20.75;;
49566;SDS011;35472;50.514;30.448;2024-03-17T02:04:30;34.35;;;19.88;;
49566;SDS011;35472;50.514;30.448;2024-03-17T02:06:56;30.65;;;18.65;;
49566;SDS011;35472;50.514;30.448;2024-03-17T02:09:21;32.35;;;19.50;;
49566;SDS011;35472;50.514;30.448;2024-03-17T02:11:47;30.67;;;19.73;;
49566;SDS011;35472;50.514;30.448;2024-03-17T02:14:12;29.88;;;19.90;;
49566;SDS011;35472;50.514;30.448;2024-03-17T02:16:39;34.20;;;21.10;;
49566;SDS011;35472;50.514;30.448;2024-03-17T02:19:07;33.05;;;19.85;;
49566;SDS011;35472;50.514;30.448;2024-03-17T02:21:33;41.92;;;22.35;;
49566;SDS011;35472;50.514;30.448;2024-03-17T02:23:58;30.52;;;19.55;;
49566;SDS011;35472;50.514;30.448;2024-03-17T02:26:24;32.28;;;21.05;;
49566;SDS011;35472;50.514;30.448;2024-03-17T02:28:51;34.53;;;20.33;;
49566;SDS011;35472;50.514;30.448;2024-03-17T02:31:16;29.40;;;18.67;;
49566;SDS011;35472;50.514;30.448;2024-03-17T02:33:42;30.10;;;20.92;;
49566;SDS011;35472;50.514;30.448;2024-03-17T02:36:09;29.75;;;18.75;;
49566;SDS011;35472;50.514;30.448;2024-03-17T02:38:37;29.65;;;18.95;;
49566;SDS011;35472;50.514;30.448;2024-03-17T02:41:21;32.05;;;20.00;;
49566;SDS011;35472;50.514;30.448;2024-03-17T02:43:47;29.27;;;18.63;;
49566;SDS011;35472;50.514;30.448;2024-03-17T02:46:13;28.23;;;18.52;;
49566;SDS011;35472;50.514;30.448;2024-03-17T02:48:40;32.40;;;20.10;;
49566;SDS011;35472;50.514;30.448;2024-03-17T02:51:16;31.17;;;20.45;;
49566;SDS011;35472;50.514;30.448;2024-03-17T02:53:44;30.98;;;19.40;;
49566;SDS011;35472;50.514;30.448;2024-03-17T02:56:11;33.22;;;18.40;;
49566;SDS011;35472;50.514;30.448;2024-03-17T02:58:37;28.10;;;18.63;;
49566;SDS011;35472;50.514;30.448;2024-03-17T03:01:04;33.70;;;19.25;;
49566;SDS011;35472;50.514;30.448;2024-03-17T03:03:31;28.80;;;18.02;;
49566;SDS011;35472;50.514;30.448;2024-03-17T03:05:57;30.45;;;18.63;;
49566;SDS011;35472;50.514;30.448;2024-03-17T03:08:23;32.55;;;18.92;;
49566;SDS011;35472;50.514;30.448;2024-03-17T03:10:49;29.45;;;18.60;;
49566;SDS011;35472;50.514;30.448;2024-03-17T03:13:14;33.38;;;19.33;;
49566;SDS011;35472;50.514;30.448;2024-03-17T03:15:40;31.33;;;20.50;;
49566;SDS011;35472;50.514;30.448;2024-03-17T03:18:05;34.90;;;22.20;;
49566;SDS011;35472;50.514;30.448;2024-03-17T03:20:31;28.98;;;18.73;;
49566;SDS011;35472;50.514;30.448;2024-03-17T03:22:56;29.98;;;18.70;;
49566;SDS011;35472;50.514;30.448;2024-03-17T03:25:21;32.00;;;18.13;;
49566;SDS011;35472;50.514;30.448;2024-03-17T03:27:47;29.15;;;19.92;;
49566;SDS011;35472;50.514;30.448;2024-03-17T03:30:14;27.13;;;18.00;;
49566;SDS011;35472;50.514;30.448;2024-03-17T03:32:41;29.27;;;18.67;;
49566;SDS011;35472;50.514;30.448;2024-03-17T03:35:07;25.05;;;16.10;;
49566;SDS011;35472;50.514;30.448;2024-03-17T03:37:33;31.98;;;17.65;;
49566;SDS011;35472;50.514;30.448;2024-03-17T03:39:59;31.70;;;17.65;;
49566;SDS011;35472;50.514;30.448;2024-03-17T03:42:24;29.90;;;17.98;;
49566;SDS011;35472;50.514;30.448;2024-03-17T03:44:49;31.48;;;18.35;;
49566;SDS011;35472;50.514;30.448;2024-03-17T03:47:15;29.50;;;18.88;;
49566;SDS011;35472;50.514;30.448;2024-03-17T03:49:40;31.63;;;18.92;;
49566;SDS011;35472;50.514;30.448;2024-03-17T03:52:06;30.35;;;17.30;;
49566;SDS011;35472;50.514;30.448;2024-03-17T03:54:31;28.38;;;18.02;;
49566;SDS011;35472;50.514;30.448;2024-03-17T03:56:57;30.50;;;19.35;;
49566;SDS011;35472;50.514;30.448;2024-03-17T03:59:22;30.35;;;19.23;;
49566;SDS011;35472;50.514;30.448;2024-03-17T04:01:49;33.83;;;18.35;;
49566;SDS011;35472;50.514;30.448;2024-03-17T04:04:14;30.10;;;17.27;;
49566;SDS011;35472;50.514;30.448;2024-03-17T04:06:40;24.35;;;15.80;;
49566;SDS011;35472;50.514;30.448;2024-03-17T04:09:05;26.15;;;17.70;;
49566;SDS011;35472;50.514;30.448;2024-03-17T04:11:33;27.00;;;16.55;;
49566;SDS011;35472;50.514;30.448;2024-03-17T04:13:59;27.73;;;16.55;;
49566;SDS011;35472;50.514;30.448;2024-03-17T04:16:25;27.48;;;16.88;;
49566;SDS011;35472;50.514;30.448;2024-03-17T04:18:51;23.70;;;16.45;;
49566;SDS011;35472;50.514;30.448;2024-03-17T04:21:16;25.60;;;16.00;;
49566;SDS011;35472;50.514;30.448;2024-03-17T04:23:42;24.73;;;16.63;;
49566;SDS011;35472;50.514;30.448;2024-03-17T04:26:07;26.08;;;17.48;;
49566;SDS011;35472;50.514;30.448;2024-03-17T04:28:33;24.85;;;17.30;;
49566;SDS011;35472;50.514;30.448;2024-03-17T04:31:05;29.38;;;15.50;;
49566;SDS011;35472;50.514;30.448;2024-03-17T04:33:32;30.80;;;16.80;;
49566;SDS011;35472;50.514;30.448;2024-03-17T04:36:01;25.67;;;15.95;;
49566;SDS011;35472;50.514;30.448;2024-03-17T04:38:29;23.15;;;15.98;;
49566;SDS011;35472;50.514;30.448;2024-03-17T04:40:55;27.45;;;17.40;;
49566;SDS011;35472;50.514;30.448;2024-03-17T04:43:30;25.92;;;16.10;;
49566;SDS011;35472;50.514;30.448;2024-03-17T04:46:03;23.70;;;15.60;;
49566;SDS011;35472;50.514;30.448;2024-03-17T04:48:31;22.85;;;16.45;;
49566;SDS011;35472;50.514;30.448;2024-03-17T04:50:59;26.13;;;16.33;;
49566;SDS011;35472;50.514;30.448;2024-03-17T04:53:26;28.92;;;17.50;;
49566;SDS011;35472;50.514;30.448;2024-03-17T04:55:58;25.45;;;16.10;;
49566;SDS011;35472;50.514;30.448;2024-03-17T04:58:24;24.42;;;16.20;;
49566;SDS011;35472;50.514;30.448;2024-03-17T05:00:50;29.88;;;17.17;;
49566;SDS011;35472;50.514;30.448;2024-03-17T05:03:15;25.70;;;17.58;;
49566;SDS011;35472;50.514;30.448;2024-03-17T05:05:43;24.80;;;17.40;;
49566;SDS011;35472;50.514;30.448;2024-03-17T05:08:08;25.45;;;15.95;;
49566;SDS011;35472;50.514;30.448;2024-03-17T05:10:36;26.35;;;15.27;;
49566;SDS011;35472;50.514;30.448;2024-03-17T05:13:01;26.88;;;15.65;;
49566;SDS011;35472;50.514;30.448;2024-03-17T05:15:27;24.08;;;16.45;;
49566;SDS011;35472;50.514;30.448;2024-03-17T05:17:53;20.80;;;14.45;;
49566;SDS011;35472;50.514;30.448;2024-03-17T05:20:19;19.42;;;15.23;;
49566;SDS011;35472;50.514;30.448;2024-03-17T05:22:46;21.75;;;15.35;;
49566;SDS011;35472;50.514;30.448;2024-03-17T05:25:13;23.73;;;16.85;;
49566;SDS011;35472;50.514;30.448;2024-03-17T05:27:40;27.60;;;16.08;;
49566;SDS011;35472;50.514;30.448;2024-03-17T05:30:06;24.40;;;16.05;;
49566;SDS011;35472;50.514;30.448;2024-03-17T05:32:33;24.27;;;16.13;;
49566;SDS011;35472;50.514;30.448;2024-03-17T05:34:59;22.30;;;16.67;;
49566;SDS011;35472;50.514;30.448;2024-03-17T05:37:24;21.98;;;14.63;;
49566;SDS011;35472;50.514;30.448;2024-03-17T05:39:52;21.33;;;15.57;;
49566;SDS011;35472;50.514;30.448;2024-03-17T05:42:17;22.50;;;15.32;;
49566;SDS011;35472;50.514;30.448;2024-03-17T05:44:43;25.05;;;16.17;;
49566;SDS011;35472;50.514;30.448;2024-03-17T05:47:18;24.10;;;16.67;;
49566;SDS011;35472;50.514;30.448;2024-03-17T05:49:44;20.60;;;15.40;;
49566;SDS011;35472;50.514;30.448;2024-03-17T05:52:10;20.33;;;15.32;;
49566;SDS011;35472;50.514;30.448;2024-03-17T05:54:36;20.40;;;14.73;;
49566;SDS011;35472;50.514;30.448;2024-03-17T05:57:04;23.00;;;16.23;;
49566;SDS011;35472;50.514;30.448;2024-03-17T05:59:30;22.40;;;15.07;;
49566;SDS011;35472;50.514;30.448;2024-03-17T06:01:56;19.88;;;15.68;;
49566;SDS011;35472;50.514;30.448;2024-03-17T06:04:21;19.67;;;14.73;;
49566;SDS011;35472;50.514;30.448;2024-03-17T06:06:47;23.35;;;16.40;;
49566;SDS011;35472;50.514;30.448;2024-03-17T06:09:13;18.58;;;15.63;;
49566;SDS011;35472;50.514;30.448;2024-03-17T06:11:42;26.45;;;17.13;;
49566;SDS011;35472;50.514;30.448;2024-03-17T06:14:08;20.77;;;17.13;;
49566;SDS011;35472;50.514;30.448;2024-03-17T06:16:38;23.50;;;17.67;;
49566;SDS011;35472;50.514;30.448;2024-03-17T06:19:04;21.63;;;16.80;;
49566;SDS011;35472;50.514;30.448;2024-03-17T06:21:30;22.83;;;17.65;;
49566;SDS011;35472;50.514;30.448;2024-03-17T06:23:57;20.63;;;16.60;;
49566;SDS011;35472;50.514;30.448;2024-03-17T06:26:23;21.90;;;17.17;;
49566;SDS011;35472;50.514;30.448;2024-03-17T06:28:48;22.75;;;16.63;;
49566;SDS011;35472;50.514;30.448;2024-03-17T06:31:14;24.35;;;18.58;;
49566;SDS011;35472;50.514;30.448;2024-03-17T06:33:42;19.45;;;17.27;;
49566;SDS011;35472;50.514;30.448;2024-03-17T06:36:08;22.60;;;17.30;;
49566;SDS011;35472;50.514;30.448;2024-03-17T06:38:35;20.95;;;16.83;;
49566;SDS011;35472;50.514;30.448;2024-03-17T06:41:00;21.30;;;16.90;;
49566;SDS011;35472;50.514;30.448;2024-03-17T06:43:28;22.23;;;18.10;;
49566;SDS011;35472;50.514;30.448;2024-03-17T06:45:54;22.42;;;17.90;;
49566;SDS011;35472;50.514;30.448;2024-03-17T06:48:23;23.13;;;16.90;;
49566;SDS011;35472;50.514;30.448;2024-03-17T06:50:49;20.77;;;17.30;;
49566;SDS011;35472;50.514;30.448;2024-03-17T06:53:17;23.75;;;18.05;;
49566;SDS011;35472;50.514;30.448;2024-03-17T06:55:44;29.48;;;17.65;;
49566;SDS011;35472;50.514;30.448;2024-03-17T06:58:16;19.77;;;15.48;;
49566;SDS011;35472;50.514;30.448;2024-03-17T07:00:51;20.85;;;16.08;;
49566;SDS011;35472;50.514;30.448;2024-03-17T07:03:17;25.25;;;18.20;;
49566;SDS011;35472;50.514;30.448;2024-03-17T07:05:50;25.73;;;17.92;;
49566;SDS011;35472;50.514;30.448;2024-03-17T07:08:20;26.83;;;18.02;;
49566;SDS011;35472;50.514;30.448;2024-03-17T07:10:59;22.63;;;15.30;;
49566;SDS011;35472;50.514;30.448;2024-03-17T07:13:29;19.30;;;14.60;;
49566;SDS011;35472;50.514;30.448;2024-03-17T07:15:55;23.35;;;14.95;;
49566;SDS011;35472;50.514;30.448;2024-03-17T07:18:21;22.90;;;13.88;;
49566;SDS011;35472;50.514;30.448;2024-03-17T07:20:46;19.45;;;13.40;;
49566;SDS011;35472;50.514;30.448;2024-03-17T07:23:13;20.70;;;13.38;;
49566;SDS011;35472;50.514;30.448;2024-03-17T07:25:40;17.73;;;12.13;;
49566;SDS011;35472;50.514;30.448;2024-03-17T07:28:06;20.25;;;12.45;;
49566;SDS011;35472;50.514;30.448;2024-03-17T07:30:31;19.33;;;13.32;;
49566;SDS011;35472;50.514;30.448;2024-03-17T07:32:58;19.48;;;12.60;;
49566;SDS011;35472;50.514;30.448;2024-03-17T07:35:24;15.68;;;12.20;;
49566;SDS011;35472;50.514;30.448;2024-03-17T07:37:49;15.63;;;11.80;;
49566;SDS011;35472;50.514;30.448;2024-03-17T07:40:17;19.27;;;12.70;;
49566;SDS011;35472;50.514;30.448;2024-03-17T07:42:43;16.13;;;11.80;;
49566;SDS011;35472;50.514;30.448;2024-03-17T07:45:10;18.95;;;11.50;;
49566;SDS011;35472;50.514;30.448;2024-03-17T07:47:36;16.52;;;11.10;;
49566;SDS011;35472;50.514;30.448;2024-03-17T07:50:02;19.65;;;12.20;;
49566;SDS011;35472;50.514;30.448;2024-03-17T07:52:30;19.23;;;13.77;;
49566;SDS011;35472;50.514;30.448;2024-03-17T07:54:57;18.00;;;11.30;;
49566;SDS011;35472;50.514;30.448;2024-03-17T07:57:22;19.98;;;13.30;;
49566;SDS011;35472;50.514;30.448;2024-03-17T07:59:50;21.35;;;13.63;;
49566;SDS011;35472;50.514;30.448;2024-03-17T08:02:16;21.27;;;13.30;;
49566;SDS011;35472;50.514;30.448;2024-03-17T08:04:42;23.13;;;14.30;;
49566;SDS011;35472;50.514;30.448;2024-03-17T08:07:07;19.92;;;12.40;;
49566;SDS011;35472;50.514;30.448;2024-03-17T08:09:37;21.55;;;14.05;;
49566;SDS011;35472;50.514;30.448;2024-03-17T08:12:02;18.23;;;13.20;;
49566;SDS011;35472;50.514;30.448;2024-03-17T08:14:29;17.35;;;13.40;;
49566;SDS011;35472;50.514;30.448;2024-03-17T08:16:55;18.90;;;13.02;;
49566;SDS011;35472;50.514;30.448;2024-03-17T08:19:20;18.10;;;11.48;;
49566;SDS011;35472;50.514;30.448;2024-03-17T08:21:46;20.48;;;12.18;;
49566;SDS011;35472;50.514;30.448;2024-03-17T08:24:13;21.83;;;13.10;;
49566;SDS011;35472;50.514;30.448;2024-03-17T08:26:39;16.58;;;11.60;;
49566;SDS011;35472;50.514;30.448;2024-03-17T08:29:05;18.65;;;10.93;;
49566;SDS011;35472;50.514;30.448;2024-03-17T08:31:31;18.40;;;12.15;;
49566;SDS011;35472;50.514;30.448;2024-03-17T08:33:57;19.10;;;13.48;;
49566;SDS011;35472;50.514;30.448;2024-03-17T08:36:22;21.15;;;13.35;;
49566;SDS011;35472;50.514;30.448;2024-03-17T08:38:48;15.98;;;12.57;;
49566;SDS011;35472;50.514;30.448;2024-03-17T08:41:13;20.58;;;12.65;;
49566;SDS011;35472;50.514;30.448;2024-03-17T08:43:39;16.83;;;11.77;;
49566;SDS011;35472;50.514;30.448;2024-03-17T08:46:06;20.02;;;12.57;;
49566;SDS011;35472;50.514;30.448;2024-03-17T08:48:34;16.77;;;11.85;;
49566;SDS011;35472;50.514;30.448;2024-03-17T08:51:01;18.05;;;12.27;;
49566;SDS011;35472;50.514;30.448;2024-03-17T08:53:28;20.70;;;12.13;;
49566;SDS011;35472;50.514;30.448;2024-03-17T08:55:54;15.75;;;12.15;;
49566;SDS011;35472;50.514;30.448;2024-03-17T08:58:20;19.88;;;12.80;;
49566;SDS011;35472;50.514;30.448;2024-03-17T09:00:45;18.17;;;11.07;;
49566;SDS011;35472;50.514;30.448;2024-03-17T09:03:11;17.35;;;10.98;;
49566;SDS011;35472;50.514;30.448;2024-03-17T09:05:41;20.63;;;13.55;;
49566;SDS011;35472;50.514;30.448;2024-03-17T09:11:06;16.38;;;10.95;;
49566;SDS011;35472;50.514;30.448;2024-03-17T09:13:39;18.17;;;11.75;;
49566;SDS011;35472;50.514;30.448;2024-03-17T09:16:04;17.05;;;11.68;;
49566;SDS011;35472;50.514;30.448;2024-03-17T09:18:30;17.63;;;12.38;;
49566;SDS011;35472;50.514;30.448;2024-03-17T09:23:26;17.60;;;12.38;;
49566;SDS011;35472;50.514;30.448;2024-03-17T09:26:03;19.52;;;12.23;;
49566;SDS011;35472;50.514;30.448;2024-03-17T09:28:41;18.25;;;13.15;;
49566;SDS011;35472;50.514;30.448;2024-03-17T09:31:06;19.70;;;12.85;;
49566;SDS011;35472;50.514;30.448;2024-03-17T09:33:32;19.73;;;13.25;;
49566;SDS011;35472;50.514;30.448;2024-03-17T09:35:59;21.63;;;13.32;;
49566;SDS011;35472;50.514;30.448;2024-03-17T09:38:28;17.65;;;12.85;;
49566;SDS011;35472;50.514;30.448;2024-03-17T09:40:54;20.85;;;13.35;;
49566;SDS011;35472;50.514;30.448;2024-03-17T09:43:25;23.58;;;15.98;;
49566;SDS011;35472;50.514;30.448;2024-03-17T09:45:51;24.30;;;15.38;;
49566;SDS011;35472;50.514;30.448;2024-03-17T09:48:23;22.80;;;15.48;;
49566;SDS011;35472;50.514;30.448;2024-03-17T09:50:56;21.55;;;14.20;;
49566;SDS011;35472;50.514;30.448;2024-03-17T09:55:53;18.92;;;13.77;;
49566;SDS011;35472;50.514;30.448;2024-03-17T09:58:23;20.65;;;13.65;;
49566;SDS011;35472;50.514;30.448;2024-03-17T10:00:50;19.55;;;12.57;;
49566;SDS011;35472;50.514;30.448;2024-03-17T10:06:17;19.17;;;13.07;;
49566;SDS011;35472;50.514;30.448;2024-03-17T10:08:55;17.73;;;12.13;;
49566;SDS011;35472;50.514;30.448;2024-03-17T10:11:27;25.73;;;12.25;;
49566;SDS011;35472;50.514;30.448;2024-03-17T10:14:03;18.52;;;11.80;;
49566;SDS011;35472;50.514;30.448;2024-03-17T10:16:30;19.00;;;12.82;;
49566;SDS011;35472;50.514;30.448;2024-03-17T10:19:07;23.08;;;13.38;;
49566;SDS011;35472;50.514;30.448;2024-03-17T10:21:38;19.77;;;13.30;;
49566;SDS011;35472;50.514;30.448;2024-03-17T10:26:38;20.30;;;12.90;;
49566;SDS011;35472;50.514;30.448;2024-03-17T10:31:53;19.10;;;11.18;;
49566;SDS011;35472;50.514;30.448;2024-03-17T10:34:20;19.00;;;12.60;;
49566;SDS011;35472;50.514;30.448;2024-03-17T10:36:49;17.77;;;12.75;;
49566;SDS011;35472;50.514;30.448;2024-03-17T10:39:23;15.82;;;12.15;;
49566;SDS011;35472;50.514;30.448;2024-03-17T10:42:00;18.92;;;14.00;;
49566;SDS011;35472;50.514;30.448;2024-03-17T10:44:27;18.90;;;12.10;;
49566;SDS011;35472;50.514;30.448;2024-03-17T10:46:56;22.15;;;13.68;;
49566;SDS011;35472;50.514;30.448;2024-03-17T10:49:24;21.30;;;13.98;;
49566;SDS011;35472;50.514;30.448;2024-03-17T10:52:02;17.50;;;12.25;;
49566;SDS011;35472;50.514;30.448;2024-03-17T10:54:33;18.20;;;12.40;;
49566;SDS011;35472;50.514;30.448;2024-03-17T10:57:07;19.58;;;13.60;;
49566;SDS011;35472;50.514;30.448;2024-03-17T10:59:51;19.00;;;13.27;;
49566;SDS011;35472;50.514;30.448;2024-03-17T11:02:21;17.33;;;13.32;;
49566;SDS011;35472;50.514;30.448;2024-03-17T11:04:52;20.30;;;15.20;;
49566;SDS011;35472;50.514;30.448;2024-03-17T11:07:19;16.20;;;12.73;;
49566;SDS011;35472;50.514;30.448;2024-03-17T11:09:46;20.30;;;13.93;;
49566;SDS011;35472;50.514;30.448;2024-03-17T11:17:44;22.20;;;14.77;;
49566;SDS011;35472;50.514;30.448;2024-03-17T11:20:23;19.20;;;14.68;;
49566;SDS011;35472;50.514;30.448;2024-03-17T11:22:50;21.35;;;13.80;;
49566;SDS011;35472;50.514;30.448;2024-03-17T11:27:58;22.33;;;15.15;;
49566;SDS011;35472;50.514;30.448;2024-03-17T11:39:01;21.30;;;15.20;;
49566;SDS011;35472;50.514;30.448;2024-03-17T11:46:40;21.05;;;14.45;;
49566;SDS011;35472;50.514;30.448;2024-03-17T11:49:11;21.15;;;14.35;;
49566;SDS011;35472;50.514;30.448;2024-03-17T11:51:43;19.58;;;13.40;;
49566;SDS011;35472;50.514;30.448;2024-03-17T11:54:13;20.98;;;14.95;;
49566;SDS011;35472;50.514;30.448;2024-03-17T11:56:43;26.50;;;15.18;;
49566;SDS011;35472;50.514;30.448;2024-03-17T11:59:10;18.83;;;13.43;;
49566;SDS011;35472;50.514;30.448;2024-03-17T12:01:36;20.83;;;15.90;;
49566;SDS011;35472;50.514;30.448;2024-03-17T12:04:04;21.00;;;14.48;;
49566;SDS011;35472;50.514;30.448;2024-03-17T12:06:31;22.45;;;15.93;;
49566;SDS011;35472;50.514;30.448;2024-03-17T12:11:46;22.17;;;15.07;;
49566;SDS011;35472;50.514;30.448;2024-03-17T12:14:14;20.75;;;15.65;;
49566;SDS011;35472;50.514;30.448;2024-03-17T12:16:51;22.70;;;14.65;;
49566;SDS011;35472;50.514;30.448;2024-03-17T12:19:20;22.27;;;14.15;;
49566;SDS011;35472;50.514;30.448;2024-03-17T12:21:50;23.00;;;14.85;;
49566;SDS011;35472;50.514;30.448;2024-03-17T12:24:25;25.50;;;15.68;;
49566;SDS011;35472;50.514;30.448;2024-03-17T12:26:55;24.52;;;15.10;;
49566;SDS011;35472;50.514;30.448;2024-03-17T12:31:52;21.65;;;14.65;;
49566;SDS011;35472;50.514;30.448;2024-03-17T12:34:19;22.58;;;15.57;;
49566;SDS011;35472;50.514;30.448;2024-03-17T12:36:45;19.58;;;14.18;;
49566;SDS011;35472;50.514;30.448;2024-03-17T12:39:20;25.27;;;15.45;;
49566;SDS011;35472;50.514;30.448;2024-03-17T12:44:40;20.42;;;13.75;;
49566;SDS011;35472;50.514;30.448;2024-03-17T12:47:22;19.75;;;14.98;;
49566;SDS011;35472;50.514;30.448;2024-03-17T12:49:49;21.98;;;15.25;;
49566;SDS011;35472;50.514;30.448;2024-03-17T12:52:32;18.88;;;14.82;;
49566;SDS011;35472;50.514;30.448;2024-03-17T13:00:35;24.17;;;16.42;;
49566;SDS011;35472;50.514;30.448;2024-03-17T13:03:07;23.73;;;14.65;;
49566;SDS011;35472;50.514;30.448;2024-03-17T13:05:33;21.70;;;14.57;;
49566;SDS011;35472;50.514;30.448;2024-03-17T13:07:59;24.20;;;15.07;;
49566;SDS011;35472;50.514;30.448;2024-03-17T13:10:26;24.73;;;15.50;;
49566;SDS011;35472;50.514;30.448;2024-03-17T13:13:05;22.05;;;13.55;;
49566;SDS011;35472;50.514;30.448;2024-03-17T13:15:33;20.80;;;14.80;;
49566;SDS011;35472;50.514;30.448;2024-03-17T13:18:03;21.90;;;14.27;;
49566;SDS011;35472;50.514;30.448;2024-03-17T13:20:29;22.73;;;14.60;;
49566;SDS011;35472;50.514;30.448;2024-03-17T13:22:55;22.83;;;14.90;;
49566;SDS011;35472;50.514;30.448;2024-03-17T13:25:24;18.63;;;15.35;;
49566;SDS011;35472;50.514;30.448;2024-03-17T13:27:53;21.50;;;15.45;;
49566;SDS011;35472;50.514;30.448;2024-03-17T13:30:19;20.70;;;15.38;;
49566;SDS011;35472;50.514;30.448;2024-03-17T13:32:51;21.77;;;14.73;;
49566;SDS011;35472;50.514;30.448;2024-03-17T13:35:28;25.80;;;16.23;;
49566;SDS011;35472;50.514;30.448;2024-03-17T13:37:57;22.73;;;15.38;;
49566;SDS011;35472;50.514;30.448;2024-03-17T13:40:30;20.80;;;14.50;;
49566;SDS011;35472;50.514;30.448;2024-03-17T13:42:56;19.70;;;14.18;;
49566;SDS011;35472;50.514;30.448;2024-03-17T13:45:27;20.40;;;15.75;;
49566;SDS011;35472;50.514;30.448;2024-03-17T13:48:01;21.05;;;14.98;;
49566;SDS011;35472;50.514;30.448;2024-03-17T13:50:31;19.75;;;14.93;;
49566;SDS011;35472;50.514;30.448;2024-03-17T13:52:59;20.00;;;14.20;;
49566;SDS011;35472;50.514;30.448;2024-03-17T13:55:25;21.15;;;15.45;;
49566;SDS011;35472;50.514;30.448;2024-03-17T13:57:51;26.27;;;16.70;;
49566;SDS011;35472;50.514;30.448;2024-03-17T14:00:22;22.77;;;15.75;;
49566;SDS011;35472;50.514;30.448;2024-03-17T14:02:49;17.27;;;13.55;;
49566;SDS011;35472;50.514;30.448;2024-03-17T14:05:17;21.83;;;14.65;;
49566;SDS011;35472;50.514;30.448;2024-03-17T14:07:43;20.80;;;15.35;;
49566;SDS011;35472;50.514;30.448;2024-03-17T14:10:10;19.17;;;14.27;;
49566;SDS011;35472;50.514;30.448;2024-03-17T14:12:36;23.40;;;16.40;;
49566;SDS011;35472;50.514;30.448;2024-03-17T14:15:05;21.33;;;15.55;;
49566;SDS011;35472;50.514;30.448;2024-03-17T14:17:32;18.77;;;14.25;;
49566;SDS011;35472;50.514;30.448;2024-03-17T14:19:58;22.63;;;15.40;;
49566;SDS011;35472;50.514;30.448;2024-03-17T14:22:23;22.20;;;15.98;;
49566;SDS011;35472;50.514;30.448;2024-03-17T14:24:48;22.08;;;15.38;;
49566;SDS011;35472;50.514;30.448;2024-03-17T14:27:15;25.38;;;17.38;;
49566;SDS011;35472;50.514;30.448;2024-03-17T14:29:41;23.27;;;16.38;;
49566;SDS011;35472;50.514;30.448;2024-03-17T14:32:06;23.40;;;15.98;;
49566;SDS011;35472;50.514;30.448;2024-03-17T14:34:34;20.55;;;15.13;;
49566;SDS011;35472;50.514;30.448;2024-03-17T14:37:03;24.05;;;16.58;;
49566;SDS011;35472;50.514;30.448;2024-03-17T14:39:29;23.17;;;16.20;;
49566;SDS011;35472;50.514;30.448;2024-03-17T14:41:55;24.27;;;16.25;;
49566;SDS011;35472;50.514;30.448;2024-03-17T14:44:21;22.65;;;16.55;;
49566;SDS011;35472;50.514;30.448;2024-03-17T14:46:47;22.70;;;15.50;;
49566;SDS011;35472;50.514;30.448;2024-03-17T14:49:16;23.52;;;16.90;;
49566;SDS011;35472;50.514;30.448;2024-03-17T14:51:42;28.05;;;17.67;;
49566;SDS011;35472;50.514;30.448;2024-03-17T14:54:07;23.60;;;16.27;;
49566;SDS011;35472;50.514;30.448;2024-03-17T14:56:34;25.75;;;16.50;;
49566;SDS011;35472;50.514;30.448;2024-03-17T14:59:00;23.10;;;16.77;;
49566;SDS011;35472;50.514;30.448;2024-03-17T15:01:27;25.10;;;17.38;;
49566;SDS011;35472;50.514;30.448;2024-03-17T15:03:55;26.17;;;17.58;;
49566;SDS011;35472;50.514;30.448;2024-03-17T15:06:23;24.80;;;17.60;;